Ritapolis, Brazil
Current Conditions -  °F | °C
As of 4:00 PM on Tuesday 27 Jan 2015 (Local Time) from SBBQ Reporting Station
Broken Clouds Broken Clouds  
Wind Chill: 79°   Ceiling: 10000
Heat Index: 80°   Visibility: 6mi
Dew Point: 61°   Wind: 3mph
Humidity: 54%   Direction: 290°WNW
Pressure: 30.15"   Gusts: NA
Location:  21.02°S, 44.32°W
Report Text: SBBQ 271800Z 29003KT 9999 SCT035 BKN100 26/16 Q1021
Loading
Personal Weather Stations






























Interactive Weather Map New forecast layout! Learn more

10-Day Weather Forecast

Advertisements
Track Severe Weather on mobile